Terminal Aerodrome Forecast
Issued by NWS

Home | Current Version | Previous Version | Graphics & Text | Print | Product List | Glossary On
Versions: 1 2 3 4 5 6 7 8 9 10 11 12 13 14 15 16 17 18 19 20 21 22 23 24 25 26 27 28 29 30 31 32 33 34 35 36 37 38 39 40 41
000
FTUS43 KLOT 132300
TAFORD
TAF
KORD 132337Z 1400/1506 09010KT 6SM BR VCSH OVC004
     FM140300 19012G20KT 4SM -RA BR OVC025
      TEMPO 1403/1407 2SM RA BR
     FM141000 33022G32KT P6SM VCSH OVC009
     FM141400 35023G35KT P6SM OVC015
     FM142100 36015G25KT 2SM -SN BR OVC020
     FM150200 36012KT P6SM OVC025=

USA.gov is the U.S. government's official web portal to all federal, state and local government web resources and services.